createdAt,value
2022-12-31T00:00:00.549Z,100095.22
2022-12-31T00:02:30.543Z,100102.44
2022-12-31T00:04:57.963Z,100099.81
2022-12-31T00:07:25.130Z,100091.00
2022-12-31T00:09:51.939Z,100099.66
2022-12-31T00:12:19.927Z,100096.03
2022-12-31T00:14:49.678Z,100097.69
2022-12-31T00:17:19.115Z,100103.47
2022-12-31T00:19:48.117Z,100084.72
2022-12-31T00:22:15.430Z,100072.69
2022-12-31T00:24:45.131Z,100070.66
2022-12-31T00:27:12.173Z,100074.41
2022-12-31T00:29:39.023Z,100074.88
2022-12-31T00:32:09.032Z,100093.25
2022-12-31T00:34:38.293Z,100075.41
2022-12-31T00:37:06.865Z,100073.00
2022-12-31T00:39:33.833Z,100069.06
2022-12-31T00:42:01.839Z,100072.19
2022-12-31T00:44:29.022Z,100072.56
2022-12-31T00:46:55.842Z,100083.06
2022-12-31T00:49:22.808Z,100083.06
2022-12-31T00:51:52.128Z,100076.84
2022-12-31T00:54:19.690Z,100072.19
2022-12-31T00:56:48.731Z,100055.94
2022-12-31T00:59:21.736Z,100065.50
2022-12-31T01:01:51.904Z,100060.28
2022-12-31T01:04:24.965Z,100048.06
2022-12-31T01:06:52.073Z,100039.28
2022-12-31T01:09:19.887Z,100038.88
2022-12-31T01:11:47.192Z,100040.03
2022-12-31T01:14:19.671Z,100062.56
2022-12-31T01:16:52.824Z,100061.25
2022-12-31T01:19:26.365Z,100043.53
2022-12-31T01:21:56.707Z,100061.97
2022-12-31T01:24:24.367Z,100058.19
2022-12-31T01:26:51.795Z,100058.97
2022-12-31T01:29:21.607Z,100069.78
2022-12-31T01:31:50.623Z,100080.72
2022-12-31T01:34:24.852Z,100081.50
2022-12-31T01:36:53.307Z,100068.13
2022-12-31T01:39:20.578Z,100092.50
2022-12-31T01:41:50.083Z,100117.56
2022-12-31T01:44:26.351Z,100181.44
2022-12-31T01:47:06.049Z,100167.00
2022-12-31T01:49:41.938Z,100154.16
2022-12-31T01:52:24.918Z,100108.31
2022-12-31T01:54:58.045Z,100058.31
2022-12-31T01:57:30.592Z,100088.53
2022-12-31T02:00:07.476Z,100097.91
2022-12-31T02:02:36.012Z,100111.00
2022-12-31T02:05:15.992Z,100107.97
2022-12-31T02:07:45.098Z,100125.09
2022-12-31T02:10:12.547Z,100109.41
2022-12-31T02:12:40.763Z,100116.06
2022-12-31T02:15:10.116Z,100126.16
2022-12-31T02:18:05.844Z,100142.03
2022-12-31T02:20:55.066Z,100139.00
2022-12-31T02:23:56.233Z,100126.72
2022-12-31T02:26:45.238Z,100147.88
2022-12-31T02:29:36.766Z,100156.38
2022-12-31T02:32:30.894Z,100152.75
2022-12-31T02:35:08.383Z,100152.34
2022-12-31T02:37:40.818Z,100147.50
2022-12-31T02:40:14.754Z,100146.72
2022-12-31T02:42:42.094Z,100139.81
2022-12-31T02:45:13.613Z,100132.44
2022-12-31T02:47:58.780Z,100122.56
2022-12-31T02:50:55.313Z,100147.53
2022-12-31T02:53:44.521Z,100140.66
2022-12-31T03:08:25.391Z,100123.13
2022-12-31T03:10:56.981Z,100120.16
2022-12-31T03:13:24.765Z,100133.81
2022-12-31T03:15:51.532Z,100118.50
2022-12-31T03:18:42.788Z,100105.22
2022-12-31T03:21:32.678Z,100102.44
2022-12-31T03:24:22.466Z,100106.44
2022-12-31T03:26:53.220Z,100095.59
2022-12-31T03:29:21.383Z,100100.41
2022-12-31T03:31:52.084Z,100091.13
2022-12-31T03:34:19.504Z,100088.13
2022-12-31T03:36:46.294Z,100086.75
2022-12-31T03:39:22.894Z,100088.94
2022-12-31T03:41:49.694Z,100096.38
2022-12-31T03:44:19.364Z,100096.34
2022-12-31T03:46:53.349Z,100075.84
2022-12-31T03:49:20.761Z,100083.47
2022-12-31T03:51:50.220Z,100088.69
2022-12-31T03:54:20.076Z,100098.53
2022-12-31T03:56:51.283Z,100106.41
2022-12-31T03:59:20.879Z,100119.13
2022-12-31T04:01:47.924Z,100113.47
2022-12-31T04:04:19.523Z,100123.31
2022-12-31T04:06:50.845Z,100113.88
2022-12-31T04:09:20.629Z,100099.84
2022-12-31T04:11:50.788Z,100091.97
2022-12-31T04:14:19.655Z,100091.16
2022-12-31T04:16:46.957Z,100085.91
2022-12-31T04:19:16.538Z,100083.31
2022-12-31T04:21:43.346Z,100083.91
2022-12-31T04:24:10.892Z,100077.09
2022-12-31T04:26:39.949Z,100065.84
2022-12-31T04:29:11.693Z,100069.66
2022-12-31T04:31:43.778Z,100067.59
2022-12-31T04:34:11.836Z,100066.38
2022-12-31T04:36:41.302Z,100074.63
2022-12-31T04:39:10.440Z,100080.31
2022-12-31T04:41:37.784Z,100079.47
2022-12-31T04:44:05.119Z,100088.75
2022-12-31T04:46:34.099Z,100105.69
2022-12-31T04:49:02.307Z,100114.13
2022-12-31T04:51:30.743Z,100104.44
2022-12-31T04:54:01.159Z,100096.41
2022-12-31T04:56:28.725Z,100107.06
2022-12-31T04:58:58.552Z,100113.50
2022-12-31T05:01:27.221Z,100132.63
2022-12-31T05:03:54.555Z,100118.53
2022-12-31T05:06:24.130Z,100121.56
2022-12-31T05:08:51.378Z,100131.22
2022-12-31T05:11:30.537Z,100123.59
2022-12-31T05:13:58.033Z,100132.59
2022-12-31T05:16:26.051Z,100134.22
2022-12-31T05:18:53.434Z,100135.81
2022-12-31T05:21:22.016Z,100124.09
2022-12-31T05:23:50.112Z,100114.44
2022-12-31T05:26:19.995Z,100121.69
2022-12-31T05:28:59.727Z,100128.34
2022-12-31T05:31:26.902Z,100121.66
2022-12-31T05:33:54.783Z,100116.63
2022-12-31T05:36:27.660Z,100121.69
2022-12-31T05:38:54.944Z,100148.59
2022-12-31T05:41:22.315Z,100162.03
2022-12-31T05:43:52.342Z,100168.63
2022-12-31T05:46:24.183Z,100145.84
2022-12-31T05:48:57.400Z,100154.63
2022-12-31T05:51:24.688Z,100139.03
2022-12-31T05:54:00.785Z,100114.66
2022-12-31T05:56:33.821Z,100121.56
2022-12-31T05:59:01.973Z,100130.75
2022-12-31T06:01:29.403Z,100139.22
2022-12-31T06:03:56.648Z,100110.19
2022-12-31T06:06:29.163Z,100129.88
2022-12-31T06:09:00.806Z,100139.06
2022-12-31T06:11:28.295Z,100138.09
2022-12-31T06:13:56.648Z,100147.28
2022-12-31T06:16:28.125Z,100135.91
2022-12-31T06:19:05.181Z,100137.44
2022-12-31T06:21:38.902Z,100130.88
2022-12-31T06:24:08.613Z,100131.69
2022-12-31T06:26:38.111Z,100133.88
2022-12-31T06:29:07.352Z,100143.78
2022-12-31T06:31:40.995Z,100136.69
2022-12-31T06:34:10.056Z,100145.75
2022-12-31T06:36:39.101Z,100141.16
2022-12-31T06:39:09.730Z,100129.25
2022-12-31T06:41:37.028Z,100135.28
2022-12-31T06:44:07.363Z,100135.81
2022-12-31T06:46:39.565Z,100138.13
2022-12-31T06:49:11.849Z,100119.50
2022-12-31T06:51:51.256Z,100133.13
2022-12-31T06:54:26.556Z,100148.91
2022-12-31T06:57:02.323Z,100127.19
2022-12-31T06:59:33.444Z,100170.66
2022-12-31T07:03:11.464Z,100165.63
2022-12-31T07:05:57.993Z,100157.47
2022-12-31T07:08:35.890Z,100145.56
2022-12-31T07:11:34.851Z,100148.72
2022-12-31T07:14:56.733Z,100140.13
2022-12-31T07:18:12.974Z,100149.53
2022-12-31T07:21:04.491Z,100134.84
2022-12-31T07:23:50.504Z,100142.53
2022-12-31T07:26:57.103Z,100153.75
2022-12-31T07:29:36.874Z,100142.72
2022-12-31T07:32:56.713Z,100131.22
2022-12-31T07:37:10.981Z,100136.03
2022-12-31T07:43:44.814Z,100122.09
2022-12-31T07:50:08.401Z,100119.34
2022-12-31T07:53:10.242Z,100117.47
2022-12-31T07:56:19.249Z,100139.13
2022-12-31T08:03:26.809Z,100159.78
2022-12-31T08:06:43.055Z,100196.59
2022-12-31T08:17:30.037Z,100212.88
2022-12-31T08:24:59.452Z,100257.66
2022-12-31T08:37:15.822Z,100274.53
2022-12-31T08:44:46.563Z,100307.22
2022-12-31T08:52:38.570Z,100303.56
2022-12-31T09:15:56.375Z,100369.47
2022-12-31T09:28:24.442Z,100399.44
2022-12-31T12:32:10.155Z,100451.44
2022-12-31T12:49:32.259Z,100417.94
2022-12-31T12:58:51.691Z,100430.72
2022-12-31T13:05:00.028Z,100415.47
2022-12-31T13:07:42.327Z,100413.16
2022-12-31T13:20:37.475Z,100417.53
2022-12-31T13:24:15.101Z,100414.75
2022-12-31T13:27:35.673Z,100403.75
2022-12-31T13:30:47.933Z,100391.75
2022-12-31T13:34:25.844Z,100407.78
2022-12-31T13:38:36.874Z,100396.69
2022-12-31T13:45:41.401Z,100401.38
2022-12-31T13:49:42.844Z,100415.16
2022-12-31T13:53:13.625Z,100432.59
2022-12-31T13:56:33.123Z,100410.25
2022-12-31T13:59:37.605Z,100411.50
2022-12-31T14:11:45.472Z,100408.31
2022-12-31T14:14:45.072Z,100416.13
2022-12-31T14:18:32.533Z,100419.97
2022-12-31T14:21:31.769Z,100413.78
2022-12-31T14:25:26.792Z,100453.22
2022-12-31T14:46:14.547Z,100458.19
2022-12-31T14:50:03.438Z,100450.28
2022-12-31T14:53:41.669Z,100444.34
2022-12-31T14:56:56.627Z,100437.50
2022-12-31T14:59:45.182Z,100433.69
2022-12-31T15:03:01.725Z,100457.78
2022-12-31T15:14:09.283Z,100439.94
2022-12-31T15:17:21.537Z,100443.56
2022-12-31T15:20:55.875Z,100427.06
2022-12-31T15:24:04.843Z,100433.03
2022-12-31T15:30:21.421Z,100420.66
2022-12-31T15:33:07.829Z,100441.03
2022-12-31T15:35:57.928Z,100421.06
2022-12-31T15:42:52.979Z,100427.50
2022-12-31T15:45:49.803Z,100416.97
2022-12-31T15:48:47.854Z,100421.31
2022-12-31T15:51:56.727Z,100429.56
2022-12-31T15:54:52.458Z,100442.88
2022-12-31T15:57:33.340Z,100431.13
2022-12-31T16:03:52.522Z,100425.56
2022-12-31T16:06:50.609Z,100417.16
2022-12-31T16:09:38.947Z,100379.34
2022-12-31T16:15:48.929Z,100424.63
2022-12-31T16:19:04.868Z,100394.31
2022-12-31T16:25:34.353Z,100433.88
2022-12-31T16:28:51.160Z,100395.00
2022-12-31T16:31:35.623Z,100391.19
2022-12-31T16:34:26.602Z,100396.91
2022-12-31T16:37:24.190Z,100391.78
2022-12-31T16:40:51.627Z,100389.81
2022-12-31T16:47:01.508Z,100389.09
2022-12-31T16:50:03.567Z,100405.06
2022-12-31T16:53:07.293Z,100388.13
2022-12-31T16:58:59.187Z,100387.75
2022-12-31T17:02:11.532Z,100383.66
2022-12-31T17:04:56.277Z,100379.84
2022-12-31T17:11:03.525Z,100394.91
2022-12-31T17:13:57.492Z,100412.16
2022-12-31T17:16:33.999Z,100389.09
2022-12-31T17:19:50.055Z,100392.88
2022-12-31T17:22:39.229Z,100391.19
2022-12-31T17:26:38.532Z,100365.97
2022-12-31T18:09:56.112Z,100403.13
2022-12-31T18:12:52.841Z,100389.59
2022-12-31T18:19:06.451Z,100393.25
2022-12-31T18:22:23.801Z,100396.16
2022-12-31T18:25:09.720Z,100388.16
2022-12-31T18:27:57.951Z,100380.72
2022-12-31T18:30:52.710Z,100387.06
2022-12-31T18:33:50.907Z,100420.75
2022-12-31T18:36:29.843Z,100391.75
2022-12-31T18:39:20.722Z,100396.19
2022-12-31T18:41:56.824Z,100419.84
2022-12-31T18:44:39.025Z,100437.81
2022-12-31T18:47:24.454Z,100414.31
2022-12-31T18:52:53.691Z,100412.00
2022-12-31T18:55:53.485Z,100428.03
2022-12-31T18:59:03.287Z,100430.19
2022-12-31T19:04:34.473Z,100428.53
2022-12-31T19:07:12.833Z,100404.09
2022-12-31T19:09:58.651Z,100433.00
2022-12-31T19:12:49.476Z,100433.84
2022-12-31T19:15:54.378Z,100445.22
2022-12-31T19:18:35.314Z,100448.44
2022-12-31T19:21:14.300Z,100429.38
2022-12-31T19:23:51.243Z,100427.91
2022-12-31T19:26:29.261Z,100432.72
2022-12-31T19:28:59.571Z,100433.81
2022-12-31T19:31:51.805Z,100437.75
2022-12-31T19:34:27.457Z,100441.31
2022-12-31T19:37:00.853Z,100436.84
2022-12-31T19:39:35.918Z,100453.56
2022-12-31T19:42:15.828Z,100449.91
2022-12-31T19:44:57.247Z,100461.25
2022-12-31T19:47:30.210Z,100434.47
2022-12-31T19:50:08.829Z,100478.28
2022-12-31T19:52:59.522Z,100446.91
2022-12-31T19:55:37.936Z,100472.75
2022-12-31T19:58:06.768Z,100460.19
2022-12-31T20:00:57.074Z,100475.03
2022-12-31T20:03:32.097Z,100472.00
2022-12-31T20:06:11.778Z,100470.38
2022-12-31T20:08:49.356Z,100464.81
2022-12-31T20:11:23.942Z,100482.28
2022-12-31T20:14:01.314Z,100467.75
2022-12-31T20:16:36.553Z,100484.31
2022-12-31T20:19:06.349Z,100457.16
2022-12-31T20:21:40.317Z,100470.47
2022-12-31T20:24:16.738Z,100469.00
2022-12-31T20:26:51.062Z,100467.16
2022-12-31T20:30:01.173Z,100476.66
2022-12-31T20:32:30.757Z,100469.22
2022-12-31T20:35:00.210Z,100473.16
2022-12-31T20:37:40.244Z,100473.56
2022-12-31T20:40:10.944Z,100471.59
2022-12-31T20:42:55.812Z,100480.28
2022-12-31T20:45:53.984Z,100481.44
2022-12-31T20:49:00.632Z,100482.94
2022-12-31T20:51:51.932Z,100476.28
2022-12-31T20:54:27.529Z,100485.88
2022-12-31T20:57:14.571Z,100474.03
2022-12-31T21:00:16.184Z,100493.03
2022-12-31T21:03:24.059Z,100466.91
2022-12-31T21:06:08.762Z,100477.75
2022-12-31T21:09:08.540Z,100479.81
2022-12-31T21:11:56.947Z,100473.03
2022-12-31T21:14:33.904Z,100489.28
2022-12-31T21:17:15.321Z,100493.97
2022-12-31T21:19:56.796Z,100482.00
2022-12-31T21:26:12.197Z,100483.59
2022-12-31T21:28:57.315Z,100501.66
2022-12-31T21:31:35.126Z,100492.28
2022-12-31T21:34:02.670Z,100500.78
2022-12-31T21:37:01.555Z,100509.34
2022-12-31T21:39:43.083Z,100518.38
2022-12-31T21:42:20.840Z,100491.91
2022-12-31T21:45:07.739Z,100495.88
2022-12-31T21:47:56.611Z,100511.91
2022-12-31T21:50:34.528Z,100503.50
2022-12-31T21:53:08.402Z,100519.56
2022-12-31T21:55:59.639Z,100503.34
2022-12-31T21:58:36.856Z,100534.66
2022-12-31T22:01:53.586Z,100497.78
2022-12-31T22:05:00.500Z,100501.59
2022-12-31T22:07:15.711Z,100522.78
2022-12-31T22:10:14.764Z,100507.16
2022-12-31T22:13:21.997Z,100493.38
2022-12-31T22:16:21.400Z,100489.66
2022-12-31T22:19:01.376Z,100511.09
2022-12-31T22:21:56.032Z,100519.44
2022-12-31T22:24:50.403Z,100516.06
2022-12-31T22:27:30.377Z,100512.91
2022-12-31T22:30:07.713Z,100513.72
2022-12-31T22:32:50.948Z,100509.41
2022-12-31T22:35:37.978Z,100509.94
2022-12-31T22:38:12.264Z,100529.31
2022-12-31T22:40:51.724Z,100552.34
2022-12-31T22:43:32.709Z,100538.44
2022-12-31T22:46:20.887Z,100555.25
2022-12-31T22:49:32.671Z,100528.66
2022-12-31T22:52:09.000Z,100535.72
2022-12-31T22:54:41.977Z,100551.47
2022-12-31T22:57:19.980Z,100553.78
2022-12-31T22:59:53.227Z,100562.44
2022-12-31T23:02:56.858Z,100558.72
2022-12-31T23:05:34.293Z,100567.63
2022-12-31T23:11:05.842Z,100579.63
2022-12-31T23:14:14.711Z,100576.34
2022-12-31T23:17:00.610Z,100559.06
2022-12-31T23:20:10.778Z,100543.63
2022-12-31T23:23:13.500Z,100571.38
2022-12-31T23:25:53.059Z,100555.56
2022-12-31T23:28:27.606Z,100571.81
2022-12-31T23:31:15.007Z,100603.03
2022-12-31T23:33:56.205Z,100583.66
2022-12-31T23:36:29.358Z,100570.91
2022-12-31T23:39:11.035Z,100581.97
2022-12-31T23:42:14.851Z,100590.03
2022-12-31T23:44:46.653Z,100592.44
2022-12-31T23:47:22.393Z,100572.16
2022-12-31T23:49:55.033Z,100570.50
2022-12-31T23:52:25.497Z,100559.66
2022-12-31T23:55:05.850Z,100596.31
2022-12-31T23:57:38.253Z,100582.19
